Aquinnah, Massachusetts
Current Conditions -  °F | °C
As of 10:53 PM on Friday 19 Dec 2014 (Local Time) from KMVY Reporting Station
Overcast Overcast  
Wind Chill: 24°   Ceiling: 3400
Heat Index: 33°   Visibility: 10mi
Dew Point: 20°   Wind: 13mph
Humidity: 59%   Direction: 340°NNW
Pressure: 30.1"   Gusts: NA
Location:  41.3536°N, 70.7417°W
Report Text: KMVY 200353Z AUTO 34011KT 10SM OVC034 01/M07 A3010 RMK AO2 SLP194 T00061067
Loading
Personal Weather Stations






























Interactive Weather Map New forecast layout! Learn more

10-Day Weather Forecast

Advertisements
Track Severe Weather on mobile